createdAt,value
2018-10-16T00:03:28.493Z,11.18
2018-10-16T00:08:22.547Z,9.08
2018-10-16T00:13:16.577Z,10.43
2018-10-16T00:18:11.687Z,9.08
2018-10-16T00:23:05.016Z,8.80
2018-10-16T00:27:59.045Z,8.95
2018-10-16T00:32:52.731Z,10.28
2018-10-16T00:37:46.256Z,9.28
2018-10-16T00:42:39.542Z,9.00
2018-10-16T00:47:32.845Z,9.88
2018-10-16T00:52:27.197Z,10.78
2018-10-16T00:57:20.850Z,10.05
2018-10-16T01:02:14.399Z,8.53
2018-10-16T01:07:07.956Z,9.70
2018-10-16T01:12:01.163Z,7.12
2018-10-16T01:16:54.932Z,7.90
2018-10-16T01:21:48.661Z,8.90
2018-10-16T01:26:42.942Z,8.45
2018-10-16T01:31:36.448Z,8.15
2018-10-16T01:36:30.144Z,9.13
2018-10-16T01:41:23.507Z,7.15
2018-10-16T01:46:16.901Z,8.80
2018-10-16T01:51:10.769Z,8.13
2018-10-16T01:56:04.052Z,9.03
2018-10-16T02:00:58.325Z,9.00
2018-10-16T02:05:51.748Z,12.30
2018-10-16T02:10:45.010Z,9.48
2018-10-16T02:15:38.665Z,8.18
2018-10-16T02:20:32.005Z,9.25
2018-10-16T02:25:25.530Z,8.10
2018-10-16T02:30:19.528Z,11.20
2018-10-16T02:35:13.723Z,9.05
2018-10-16T02:40:11.116Z,7.33
2018-10-16T02:45:05.766Z,8.83
2018-10-16T02:49:59.079Z,6.12
2018-10-16T02:54:52.310Z,10.63
2018-10-16T02:59:45.801Z,8.95
2018-10-16T03:04:40.173Z,7.33
2018-10-16T03:09:33.406Z,10.58
2018-10-16T03:14:26.694Z,10.65
2018-10-16T03:19:19.912Z,7.47
2018-10-16T03:24:13.156Z,11.83
2018-10-16T03:29:07.299Z,11.53
2018-10-16T03:34:00.521Z,7.85
2018-10-16T03:38:53.913Z,10.30
2018-10-16T03:43:53.510Z,10.45
2018-10-16T03:48:46.796Z,8.30
2018-10-16T03:53:40.079Z,23.60
2018-10-16T03:58:33.408Z,12.40
2018-10-16T04:03:26.723Z,11.95
2018-10-16T04:08:20.094Z,7.65
2018-10-16T04:13:13.359Z,10.35
2018-10-16T04:18:06.693Z,12.78
2018-10-16T04:23:00.406Z,16.57
2018-10-16T04:27:53.624Z,15.20
2018-10-16T04:32:47.397Z,13.38
2018-10-16T04:37:40.864Z,13.83
2018-10-16T04:42:36.970Z,20.17
2018-10-16T04:47:30.342Z,14.45
2018-10-16T04:52:24.613Z,13.62
2018-10-16T04:57:17.834Z,12.05
2018-10-16T05:02:11.044Z,10.18
2018-10-16T05:07:06.489Z,15.35
2018-10-16T05:12:00.507Z,14.73
2018-10-16T05:16:53.801Z,12.18
2018-10-16T05:21:46.971Z,11.83
2018-10-16T05:26:41.721Z,10.75
2018-10-16T05:31:35.406Z,14.25
2018-10-16T05:36:28.511Z,14.93
2018-10-16T05:41:21.925Z,11.73
2018-10-16T05:46:15.470Z,15.30
2018-10-16T05:51:08.812Z,13.98
2018-10-16T05:56:04.662Z,16.10
2018-10-16T06:00:59.588Z,16.97
2018-10-16T06:05:53.745Z,14.43
2018-10-16T06:10:47.510Z,26.77
2018-10-16T06:15:41.322Z,12.43
2018-10-16T06:20:34.616Z,12.07
2018-10-16T06:25:28.243Z,16.30
2018-10-16T06:30:21.575Z,13.90
2018-10-16T06:35:14.784Z,21.93
2018-10-16T06:40:08.888Z,11.88
2018-10-16T06:45:02.577Z,14.23
2018-10-16T06:49:56.869Z,11.88
2018-10-16T06:54:50.337Z,16.42
2018-10-16T06:59:44.208Z,19.30
2018-10-16T07:04:37.403Z,26.85
2018-10-16T07:09:31.228Z,28.32
2018-10-16T07:14:24.427Z,25.95
2018-10-16T07:19:17.763Z,30.32
2018-10-16T07:24:11.130Z,22.00
2018-10-16T07:29:05.029Z,28.52
2018-10-16T07:33:58.602Z,28.50
2018-10-16T07:38:53.855Z,20.52
2018-10-16T07:43:47.255Z,17.92
2018-10-16T07:48:40.825Z,11.10
2018-10-16T07:53:34.024Z,10.63
2018-10-16T07:58:27.260Z,12.93
2018-10-16T08:03:20.474Z,11.33
2018-10-16T08:08:13.745Z,13.98
2018-10-16T08:13:07.003Z,10.25
2018-10-16T08:18:00.594Z,12.47
2018-10-16T08:22:53.953Z,6.97
2018-10-16T08:27:47.252Z,11.43
2018-10-16T08:32:40.435Z,9.63
2018-10-16T08:39:52.840Z,7.12
2018-10-16T08:45:22.406Z,10.30
2018-10-16T08:50:28.566Z,7.95
2018-10-16T08:55:23.077Z,9.55
2018-10-16T09:00:16.377Z,10.90
2018-10-16T09:05:09.764Z,10.58
2018-10-16T09:10:03.296Z,11.33
2018-10-16T09:14:56.821Z,11.35
2018-10-16T09:19:50.712Z,9.48
2018-10-16T09:24:44.154Z,10.45
2018-10-16T09:29:37.753Z,8.20
2018-10-16T09:34:31.082Z,9.65
2018-10-16T09:39:26.061Z,7.55
2018-10-16T09:44:19.493Z,8.90
2018-10-16T09:49:13.781Z,8.65
2018-10-16T09:54:07.249Z,10.38
2018-10-16T09:59:01.054Z,9.10
2018-10-16T10:03:55.031Z,8.30
2018-10-16T10:08:49.004Z,10.25
2018-10-16T10:13:42.824Z,9.98
2018-10-16T10:18:36.053Z,11.88
2018-10-16T10:23:30.186Z,11.50
2018-10-16T10:28:23.456Z,9.45
2018-10-16T10:33:17.138Z,11.05
2018-10-16T10:38:11.052Z,12.73
2018-10-16T10:43:04.440Z,11.78
2018-10-16T10:47:59.630Z,10.00
2018-10-16T10:52:52.924Z,12.00
2018-10-16T10:57:46.230Z,13.15
2018-10-16T11:02:40.371Z,11.85
2018-10-16T11:07:36.189Z,10.23
2018-10-16T11:12:29.770Z,11.18
2018-10-16T11:17:26.740Z,8.78
2018-10-16T11:22:20.112Z,7.97
2018-10-16T11:27:13.645Z,9.13
2018-10-16T11:32:07.080Z,11.55
2018-10-16T11:37:00.300Z,11.43
2018-10-16T11:41:53.665Z,12.07
2018-10-16T11:46:46.985Z,12.88
2018-10-16T11:51:41.916Z,10.25
2018-10-16T11:56:35.298Z,11.25
2018-10-16T12:01:29.192Z,8.73
2018-10-16T12:06:22.649Z,8.93
2018-10-16T12:11:16.302Z,9.75
2018-10-16T12:16:09.998Z,9.58
2018-10-16T12:21:12.319Z,11.80
2018-10-16T12:26:06.084Z,15.70
2018-10-16T12:31:00.574Z,11.20
2018-10-16T12:35:53.764Z,8.03
2018-10-16T12:40:48.456Z,8.65
2018-10-16T12:45:42.152Z,8.45
2018-10-16T12:50:35.337Z,9.60
2018-10-16T12:55:29.097Z,9.43
2018-10-16T13:00:22.330Z,8.10
2018-10-16T13:05:15.821Z,10.23
2018-10-16T13:10:11.564Z,7.05
2018-10-16T13:15:06.698Z,9.90
2018-10-16T13:20:00.204Z,7.75
2018-10-16T13:24:53.310Z,8.13
2018-10-16T13:29:46.541Z,10.05
2018-10-16T13:34:39.874Z,8.65
2018-10-16T13:39:33.130Z,12.85
2018-10-16T13:44:26.448Z,9.90
2018-10-16T13:49:19.640Z,10.00
2018-10-16T13:54:12.906Z,10.32
2018-10-16T13:59:06.585Z,10.35
2018-10-16T14:03:59.896Z,8.55
2018-10-16T14:08:53.115Z,8.75
2018-10-16T14:13:46.401Z,12.78
2018-10-16T14:18:39.602Z,8.70
2018-10-16T14:23:32.750Z,8.98
2018-10-16T14:28:25.957Z,8.98
2018-10-16T14:33:19.290Z,10.40
2018-10-16T14:38:12.458Z,7.25
2018-10-16T14:43:05.790Z,8.90
2018-10-16T14:47:59.193Z,9.18
2018-10-16T14:52:52.475Z,8.53
2018-10-16T14:57:45.663Z,11.60
2018-10-16T15:02:38.909Z,9.28
2018-10-16T15:07:32.151Z,13.00
2018-10-16T15:12:30.032Z,9.75
2018-10-16T15:17:24.691Z,10.40
2018-10-16T15:22:18.593Z,12.05
2018-10-16T15:27:12.107Z,11.28
2018-10-16T15:32:05.628Z,9.83
2018-10-16T15:36:59.805Z,14.13
2018-10-16T15:41:54.804Z,10.23
2018-10-16T15:46:49.742Z,10.95
2018-10-16T15:51:44.204Z,13.28
2018-10-16T15:56:38.512Z,12.75
2018-10-16T16:01:32.013Z,12.03
2018-10-16T16:06:25.466Z,13.98
2018-10-16T16:11:18.966Z,11.75
2018-10-16T16:16:12.899Z,12.53
2018-10-16T16:21:07.760Z,15.08
2018-10-16T16:26:01.261Z,14.45
2018-10-16T16:30:54.405Z,14.23
2018-10-16T16:35:47.584Z,13.15
2018-10-16T16:40:41.506Z,13.03
2018-10-16T16:45:34.676Z,16.85
2018-10-16T16:50:27.897Z,15.43
2018-10-16T16:55:21.172Z,14.07
2018-10-16T17:00:15.054Z,14.68
2018-10-16T17:05:08.850Z,17.27
2018-10-16T17:10:02.168Z,15.10
2018-10-16T17:14:55.363Z,13.28
2018-10-16T17:19:48.658Z,13.43
2018-10-16T17:24:42.530Z,12.93
2018-10-16T17:29:35.856Z,13.25
2018-10-16T17:34:29.452Z,15.65
2018-10-16T17:39:23.035Z,15.43
2018-10-16T17:44:17.478Z,15.32
2018-10-16T17:49:12.078Z,15.80
2018-10-16T17:54:05.518Z,15.32
2018-10-16T17:59:01.904Z,14.95
2018-10-16T18:03:55.245Z,13.60
2018-10-16T18:08:48.726Z,14.95
2018-10-16T18:13:42.422Z,13.32
2018-10-16T18:18:35.800Z,15.95
2018-10-16T18:23:30.074Z,16.93
2018-10-16T18:28:23.570Z,12.95
2018-10-16T18:33:16.779Z,16.97
2018-10-16T18:38:09.998Z,15.20
2018-10-16T18:43:03.391Z,16.15
2018-10-16T18:47:56.679Z,15.53
2018-10-16T18:52:49.978Z,16.27
2018-10-16T18:57:43.177Z,14.00
2018-10-16T19:02:36.434Z,22.48
2018-10-16T19:07:29.803Z,22.65
2018-10-16T19:12:23.074Z,18.45
2018-10-16T19:17:17.075Z,17.35
2018-10-16T19:22:10.451Z,18.90
2018-10-16T19:27:03.910Z,23.02
2018-10-16T19:31:57.150Z,18.65
2018-10-16T19:36:50.329Z,18.70
2018-10-16T19:41:43.557Z,21.07
2018-10-16T19:46:36.845Z,19.12
2018-10-16T19:51:30.172Z,17.37
2018-10-16T19:56:23.547Z,16.95
2018-10-16T20:01:17.705Z,16.27
2018-10-16T20:06:10.906Z,15.15
2018-10-16T20:11:04.339Z,13.25
2018-10-16T20:15:57.569Z,15.28
2018-10-16T20:20:51.215Z,17.75
2018-10-16T20:25:44.408Z,16.77
2018-10-16T20:30:37.637Z,16.87
2018-10-16T20:35:30.884Z,13.68
2018-10-16T20:40:24.151Z,17.02
2018-10-16T20:45:17.339Z,26.93
2018-10-16T20:50:10.713Z,18.85
2018-10-16T20:55:04.596Z,17.90
2018-10-16T20:59:58.302Z,18.17
2018-10-16T21:04:51.451Z,18.48
2018-10-16T21:09:44.874Z,16.65
2018-10-16T21:14:38.196Z,17.25
2018-10-16T21:19:31.333Z,17.07
2018-10-16T21:24:24.499Z,16.25
2018-10-16T21:29:17.664Z,15.83
2018-10-16T21:34:10.906Z,14.85
2018-10-16T21:39:05.198Z,14.20
2018-10-16T21:43:58.392Z,14.03
2018-10-16T21:48:52.625Z,13.35
2018-10-16T21:53:45.895Z,16.52
2018-10-16T21:58:40.058Z,14.33
2018-10-16T22:03:33.138Z,15.30
2018-10-16T22:08:26.275Z,16.17
2018-10-16T22:13:19.390Z,13.20
2018-10-16T22:18:12.610Z,13.32
2018-10-16T22:23:05.834Z,14.50
2018-10-16T22:27:59.028Z,13.78
2018-10-16T22:32:52.212Z,13.38
2018-10-16T22:37:45.251Z,12.82
2018-10-16T22:42:38.746Z,13.10
2018-10-16T22:47:31.719Z,12.30
2018-10-16T22:52:26.017Z,12.90
2018-10-16T22:57:19.052Z,11.85
2018-10-16T23:02:12.232Z,12.20
2018-10-16T23:07:05.745Z,13.60
2018-10-16T23:11:58.833Z,12.82
2018-10-16T23:16:52.136Z,13.65
2018-10-16T23:21:46.280Z,13.28
2018-10-16T23:26:39.374Z,14.38
2018-10-16T23:31:32.561Z,14.40
2018-10-16T23:36:25.766Z,13.00
2018-10-16T23:41:19.103Z,11.57
2018-10-16T23:46:12.536Z,12.00
2018-10-16T23:51:06.540Z,12.68
2018-10-16T23:55:59.809Z,11.55
